Time;durP1;ratioP1;P1;durP2;ratioP2;P2;SDS_P1;SDS_P2;PMS_P1;PMS_P2;Temp;Humidity;BMP_temperature;BMP_pressure;BME280_temperature;BME280_humidity;BME280_pressure;Samples;Min_cycle;Max_cycle;Signal;HPM_P1;HPM_P2
2021/01/18 00:00:43;;;;;;;;;;;;;;;9.75;54.54;102429.47;4940024;29;19925;-86
2021/01/18 00:03:09;;;;;;;;;;;;;;;9.90;53.54;102425.59;4939692;29;20321;-87
2021/01/18 00:05:34;;;;;;;;;;;;;;;9.75;54.10;102434.88;4939036;29;19919;-87
2021/01/18 00:07:59;;;;;;;;;;;;;;;9.56;54.74;102431.59;4940008;29;19919;-86
2021/01/18 00:10:24;;;;;;;;;;;;;;;9.53;54.86;102437.06;4939869;29;19925;-85
2021/01/18 00:12:51;;;;;;;;;;;;;;;9.49;55.34;102434.44;4931173;29;19930;-85
2021/01/18 00:15:17;;;;;;;;;;;;;;;9.37;55.43;102427.44;4924974;29;19927;-85
2021/01/18 00:17:43;;;;;;;;;;;;;;;9.82;53.91;102418.53;4929301;29;19929;-84
2021/01/18 00:20:09;;;;;;;;;;;;;;;9.34;55.24;102427.50;4938647;29;19923;-85
2021/01/18 00:22:38;;;;;;;;;;;;;;;9.60;54.24;102420.75;4938555;29;19924;-87
2021/01/18 00:25:05;;;;;;;;;;;;;;;9.40;54.96;102420.19;4938775;29;19919;-88
2021/01/18 00:27:30;;;;;;;;;;;;;;;9.98;53.50;102416.41;4939427;29;19922;-87
2021/01/18 00:29:56;;;;;;;;;;;;;;;9.60;54.50;102420.75;4938438;29;20320;-87
2021/01/18 00:32:22;;;;;;;;;;;;;;;9.68;54.69;102419.69;4939140;29;19918;-86
2021/01/18 00:34:47;;;;;;;;;;;;;;;9.17;55.59;102417.88;4933948;29;19923;-87
2021/01/18 00:37:12;;;;;;;;;;;;;;;9.09;56.36;102406.31;4919171;29;19923;-86
2021/01/18 00:39:37;;;;;;;;;;;;;;;9.31;56.01;102404.13;4930709;29;19926;-87
2021/01/18 00:42:04;;;;;;;;;;;;;;;9.10;56.05;102393.69;4921046;29;20400;-87
2021/01/18 00:44:29;;;;;;;;;;;;;;;9.07;56.94;102391.94;4921010;29;19919;-87
2021/01/18 00:46:54;;;;;;;;;;;;;;;9.13;56.29;102389.13;4920461;29;19954;-87
2021/01/18 00:49:20;;;;;;;;;;;;;;;9.34;55.71;102382.47;4922439;29;19919;-87
2021/01/18 00:51:45;;;;;;;;;;;;;;;9.52;55.32;102378.53;4923631;29;19931;-86
2021/01/18 00:54:10;;;;;;;;;;;;;;;9.60;54.53;102388.31;4923577;29;19995;-86
2021/01/18 00:56:35;;;;;;;;;;;;;;;9.82;53.82;102381.59;4923445;29;19975;-87
2021/01/18 00:59:01;;;;;;;;;;;;;;;9.83;53.78;102380.66;4923625;29;20365;-89
2021/01/18 01:01:26;;;;;;;;;;;;;;;10.02;53.12;102386.56;4923295;29;19919;-87
2021/01/18 01:03:51;;;;;;;;;;;;;;;9.43;54.45;102381.41;4923545;29;19919;-88
2021/01/18 01:06:17;;;;;;;;;;;;;;;9.30;55.39;102379.84;4923666;29;19927;-88
2021/01/18 01:08:42;;;;;;;;;;;;;;;9.93;53.73;102371.47;4940638;29;19965;-87
2021/01/18 01:11:07;;;;;;;;;;;;;;;10.24;52.96;102380.75;4923870;29;19919;-87
2021/01/18 01:13:32;;;;;;;;;;;;;;;10.01;53.85;102378.50;4923082;29;19966;-86
2021/01/18 01:15:58;;;;;;;;;;;;;;;10.01;53.70;102365.88;4923167;29;20393;-87
2021/01/18 01:18:23;;;;;;;;;;;;;;;9.59;55.20;102365.81;4923437;29;20312;-87
2021/01/18 01:20:48;;;;;;;;;;;;;;;9.66;55.43;102371.97;4926994;29;19919;-86
2021/01/18 01:23:13;;;;;;;;;;;;;;;9.87;54.84;102377.00;4926822;29;19934;-85
2021/01/18 01:25:39;;;;;;;;;;;;;;;9.98;54.79;102374.06;4926546;29;19925;-87
2021/01/18 01:28:04;;;;;;;;;;;;;;;9.37;55.73;102378.81;4931710;29;19918;-86
2021/01/18 01:30:29;;;;;;;;;;;;;;;9.65;55.17;102378.34;4937632;29;20532;-86
2021/01/18 01:32:54;;;;;;;;;;;;;;;9.38;56.18;102375.22;4945804;29;19954;-86
2021/01/18 01:35:24;;;;;;;;;;;;;;;9.25;56.39;102384.44;4945983;29;19926;-87
2021/01/18 01:37:49;;;;;;;;;;;;;;;9.55;56.04;102381.19;4940843;29;20025;-87
2021/01/18 01:40:15;;;;;;;;;;;;;;;9.58;56.08;102375.72;4945521;29;19970;-87
2021/01/18 01:42:40;;;;;;;;;;;;;;;9.61;56.31;102365.78;4962587;29;19925;-85
2021/01/18 01:45:11;;;;;;;;;;;;;;;9.90;55.39;102371.53;4944693;29;20265;-87
2021/01/18 01:47:38;;;;;;;;;;;;;;;10.39;53.57;102371.44;4944560;29;19925;-86
2021/01/18 01:50:05;;;;;;;;;;;;;;;10.58;53.91;102375.50;4961811;29;19922;-85
2021/01/18 01:52:32;;;;;;;;;;;;;;;10.66;53.35;102377.13;4945275;29;19938;-85
2021/01/18 01:54:59;;;;;;;;;;;;;;;10.79;52.69;102375.91;4945438;29;19914;-86
2021/01/18 01:57:25;;;;;;;;;;;;;;;10.54;54.11;102375.59;4962130;29;19918;-86
2021/01/18 01:59:51;;;;;;;;;;;;;;;10.56;54.05;102371.03;4945141;29;20360;-86
2021/01/18 02:02:16;;;;;;;;;;;;;;;10.30;54.75;102388.72;4962073;29;19926;-85
2021/01/18 02:04:41;;;;;;;;;;;;;;;10.43;54.24;102379.44;4962321;29;19918;-86
2021/01/18 02:07:23;;;;;;;;;;;;;;;10.75;53.43;102379.59;4945369;29;19968;-86
2021/01/18 02:09:49;;;;;;;;;;;;;;;10.60;53.66;102386.28;4945117;29;19918;-86
2021/01/18 02:12:14;;;;;;;;;;;;;;;9.93;55.76;102384.06;4945345;29;19941;-86
2021/01/18 02:14:53;;;;;;;;;;;;;;;10.20;55.06;102376.31;4945165;29;20394;-87
2021/01/18 02:17:25;;;;;;;;;;;;;;;10.04;55.53;102386.53;4946413;29;19946;-86
2021/01/18 02:20:09;;;;;;;;;;;;;;;10.69;53.56;102387.88;4947228;29;19922;-86
2021/01/18 02:22:37;;;;;;;;;;;;;;;9.71;57.11;102389.91;4946806;29;19922;-86
2021/01/18 02:25:22;;;;;;;;;;;;;;;9.39;57.91;102398.59;4946679;29;19929;-87
2021/01/18 02:28:07;;;;;;;;;;;;;;;10.58;54.92;102386.31;4946649;29;19924;-86
2021/01/18 02:30:32;;;;;;;;;;;;;;;10.43;54.76;102386.66;4962970;28;19918;-86
2021/01/18 02:33:13;;;;;;;;;;;;;;;11.10;53.05;102384.16;4946400;29;19937;-87
2021/01/18 02:35:50;;;;;;;;;;;;;;;10.92;53.67;102384.63;4946251;29;19966;-87
2021/01/18 02:38:22;;;;;;;;;;;;;;;10.41;54.45;102375.84;4946575;29;19915;-87
2021/01/18 02:40:47;;;;;;;;;;;;;;;10.78;53.75;102375.03;4946934;29;19922;-87
2021/01/18 02:43:15;;;;;;;;;;;;;;;10.44;55.10;102372.22;4946378;29;19929;-87
2021/01/18 02:45:41;;;;;;;;;;;;;;;10.35;55.58;102376.00;4962643;29;19961;-86
2021/01/18 02:48:07;;;;;;;;;;;;;;;10.37;56.09;102376.88;4946065;29;20368;-87
2021/01/18 02:50:34;;;;;;;;;;;;;;;10.55;55.33;102370.16;4945362;29;19923;-86
2021/01/18 02:52:59;;;;;;;;;;;;;;;10.85;54.69;102373.03;4963053;29;19929;-86
2021/01/18 02:55:25;;;;;;;;;;;;;;;10.44;55.98;102377.63;4945607;29;20094;-87
2021/01/18 02:57:51;;;;;;;;;;;;;;;10.90;54.57;102370.22;4946226;29;19919;-86
2021/01/18 03:00:21;;;;;;;;;;;;;;;10.69;55.34;102364.41;4963047;29;19926;-87
2021/01/18 03:03:06;;;;;;;;;;;;;;;10.82;55.42;102367.72;4945750;29;19957;-86
2021/01/18 03:05:37;;;;;;;;;;;;;;;10.86;55.23;102358.59;4945123;29;19925;-85
2021/01/18 03:08:15;;;;;;;;;;;;;;;10.70;55.72;102357.19;4942900;29;19930;-86
2021/01/18 03:10:42;;;;;;;;;;;;;;;10.04;57.72;102355.00;4940018;29;19918;-86
2021/01/18 03:13:15;;;;;;;;;;;;;;;9.76;58.74;102358.25;4930834;29;19918;-89
2021/01/18 03:15:42;;;;;;;;;;;;;;;10.80;55.83;102356.91;4925425;29;20411;-87
2021/01/18 03:18:10;;;;;;;;;;;;;;;10.56;56.33;102354.81;4940280;29;19925;-85
2021/01/18 03:20:36;;;;;;;;;;;;;;;11.18;54.53;102359.59;4945072;29;19923;-87
2021/01/18 03:23:03;;;;;;;;;;;;;;;11.47;53.24;102352.50;4944649;29;19922;-87
2021/01/18 03:25:28;;;;;;;;;;;;;;;11.07;53.97;102350.88;4944616;29;20322;-87
2021/01/18 03:27:57;;;;;;;;;;;;;;;10.60;55.74;102346.56;4951446;29;19970;-87
2021/01/18 03:30:22;;;;;;;;;;;;;;;11.40;53.52;102343.66;4942506;29;19919;-87
2021/01/18 03:32:52;;;;;;;;;;;;;;;10.82;54.52;102341.53;4925791;29;19926;-87
2021/01/18 03:35:18;;;;;;;;;;;;;;;10.22;57.18;102342.91;4942730;29;19919;-87
2021/01/18 03:37:44;;;;;;;;;;;;;;;10.63;55.42;102343.78;4925420;29;19957;-86
2021/01/18 03:40:09;;;;;;;;;;;;;;;10.79;55.04;102343.41;4925399;29;19919;-88
2021/01/18 03:42:35;;;;;;;;;;;;;;;10.98;54.77;102346.56;4924683;29;19918;-88
2021/01/18 03:45:00;;;;;;;;;;;;;;;11.03;54.72;102336.50;4942627;29;19923;-87
2021/01/18 03:47:25;;;;;;;;;;;;;;;10.16;57.55;102336.72;4925407;29;19919;-87
2021/01/18 03:49:51;;;;;;;;;;;;;;;10.83;55.09;102331.59;4925494;29;20017;-87
2021/01/18 03:52:16;;;;;;;;;;;;;;;10.51;56.16;102335.06;4941878;29;20372;-87
2021/01/18 03:54:41;;;;;;;;;;;;;;;10.16;57.52;102326.81;4924525;29;19973;-83
2021/01/18 03:57:06;;;;;;;;;;;;;;;10.61;55.93;102326.72;4924558;29;19919;-86
2021/01/18 03:59:31;;;;;;;;;;;;;;;10.64;55.41;102326.63;4941767;29;19918;-86
2021/01/18 04:01:57;;;;;;;;;;;;;;;10.56;55.84;102336.75;4924599;29;19919;-86
2021/01/18 04:04:22;;;;;;;;;;;;;;;10.31;57.59;102332.78;4925391;29;20391;-86
2021/01/18 04:06:47;;;;;;;;;;;;;;;10.54;56.42;102324.19;4925225;29;20384;-86
2021/01/18 04:09:12;;;;;;;;;;;;;;;10.67;55.99;102327.47;4925170;29;19922;-86
2021/01/18 04:11:38;;;;;;;;;;;;;;;10.70;55.81;102325.56;4924873;29;20388;-86
2021/01/18 04:14:03;;;;;;;;;;;;;;;10.56;56.07;102328.63;4925223;29;19973;-86
2021/01/18 04:16:28;;;;;;;;;;;;;;;10.62;55.73;102328.47;4924801;29;20452;-86
2021/01/18 04:18:53;;;;;;;;;;;;;;;10.81;56.13;102330.75;4924973;29;20272;-86
2021/01/18 04:21:19;;;;;;;;;;;;;;;10.54;56.80;102325.06;4924651;29;19926;-86
2021/01/18 04:23:45;;;;;;;;;;;;;;;10.51;56.62;102322.44;4924549;29;19919;-86
2021/01/18 04:26:10;;;;;;;;;;;;;;;10.61;56.28;102321.31;4924718;29;19922;-87
2021/01/18 04:28:36;;;;;;;;;;;;;;;10.31;57.26;102316.56;4924406;29;20280;-85
2021/01/18 04:31:01;;;;;;;;;;;;;;;10.56;56.43;102322.34;4941088;29;20431;-87
2021/01/18 04:33:26;;;;;;;;;;;;;;;10.35;56.88;102321.00;4924301;29;19925;-86
2021/01/18 04:35:54;;;;;;;;;;;;;;;10.01;58.06;102313.59;4924030;29;19934;-86
2021/01/18 04:38:19;;;;;;;;;;;;;;;10.36;57.10;102315.56;4941201;29;20459;-86
2021/01/18 04:40:45;;;;;;;;;;;;;;;10.31;57.55;102317.47;4923735;29;19982;-85
2021/01/18 04:43:12;;;;;;;;;;;;;;;10.86;55.96;102317.97;4923876;29;19925;-85
2021/01/18 04:45:38;;;;;;;;;;;;;;;10.58;56.58;102310.56;4940800;29;20496;-86
2021/01/18 04:48:03;;;;;;;;;;;;;;;10.86;56.04;102309.84;4924128;29;19966;-86
2021/01/18 04:50:29;;;;;;;;;;;;;;;11.12;55.02;102302.88;4923620;29;19958;-86
2021/01/18 04:52:55;;;;;;;;;;;;;;;11.19;55.31;102299.09;4923926;29;19983;-86
2021/01/18 04:55:30;;;;;;;;;;;;;;;9.71;60.19;102297.13;4923497;29;19919;-85
2021/01/18 04:58:07;;;;;;;;;;;;;;;10.65;57.51;102300.47;4924056;29;19943;-86
2021/01/18 05:00:36;;;;;;;;;;;;;;;10.69;57.10;102304.88;4923973;29;20021;-86
2021/01/18 05:03:05;;;;;;;;;;;;;;;10.59;57.63;102306.91;4923851;29;20380;-86
2021/01/18 05:05:36;;;;;;;;;;;;;;;10.23;58.92;102303.22;4941174;29;19942;-85
2021/01/18 05:08:02;;;;;;;;;;;;;;;10.74;57.20;102294.81;4924137;29;19919;-85
2021/01/18 05:10:29;;;;;;;;;;;;;;;10.84;57.13;102289.16;4924226;29;19954;-86
2021/01/18 05:12:55;;;;;;;;;;;;;;;11.12;55.77;102289.34;4941266;29;19919;-87
2021/01/18 05:15:20;;;;;;;;;;;;;;;10.28;58.39;102290.47;4924283;29;19919;-86
2021/01/18 05:17:46;;;;;;;;;;;;;;;10.54;57.50;102281.78;4923945;29;19919;-86
2021/01/18 05:20:15;;;;;;;;;;;;;;;10.68;57.71;102291.38;4940629;29;19922;-86
2021/01/18 05:22:45;;;;;;;;;;;;;;;10.15;59.06;102283.59;4924196;29;19974;-85
2021/01/18 05:25:10;;;;;;;;;;;;;;;10.34;58.18;102278.66;4941407;29;19957;-85
2021/01/18 05:27:54;;;;;;;;;;;;;;;11.48;55.30;102281.13;4923786;29;19919;-83
2021/01/18 05:30:20;;;;;;;;;;;;;;;11.24;55.79;102271.88;4940745;29;20417;-84
2021/01/18 05:32:46;;;;;;;;;;;;;;;11.52;55.21;102270.16;4923361;29;19930;-85
2021/01/18 05:35:12;;;;;;;;;;;;;;;11.46;54.95;102264.03;4940531;29;19965;-83
2021/01/18 05:37:54;;;;;;;;;;;;;;;11.22;56.15;102268.28;4923744;29;19922;-85
2021/01/18 05:40:23;;;;;;;;;;;;;;;11.07;56.18;102256.97;4923375;29;19985;-86
2021/01/18 05:42:50;;;;;;;;;;;;;;;10.72;56.79;102263.28;4923387;29;19954;-86
2021/01/18 05:45:24;;;;;;;;;;;;;;;11.16;55.73;102256.69;4923635;29;19950;-85
2021/01/18 05:47:50;;;;;;;;;;;;;;;11.65;54.02;102256.25;4923479;29;19918;-84
2021/01/18 05:50:16;;;;;;;;;;;;;;;11.81;53.83;102253.97;4923481;29;20329;-85
2021/01/18 05:52:42;;;;;;;;;;;;;;;9.92;59.14;102260.66;4925032;29;19934;-84
2021/01/18 05:55:20;;;;;;;;;;;;;;;11.23;56.09;102259.25;4939789;29;19919;-85
2021/01/18 05:57:46;;;;;;;;;;;;;;;11.41;55.72;102255.13;4943582;29;19929;-84
2021/01/18 06:00:12;;;;;;;;;;;;;;;10.94;56.22;102263.63;4927632;29;19966;-85
2021/01/18 06:02:38;;;;;;;;;;;;;;;10.18;59.47;102256.47;4923497;29;20002;-85
2021/01/18 06:05:07;;;;;;;;;;;;;;;10.17;59.18;102263.66;4941164;29;19930;-86
2021/01/18 06:07:32;;;;;;;;;;;;;;;10.42;58.57;102269.44;4926893;29;20368;-85
2021/01/18 06:09:57;;;;;;;;;;;;;;;10.63;58.65;102276.13;4943708;29;19926;-84
2021/01/18 06:12:24;;;;;;;;;;;;;;;9.62;60.80;102272.97;4943825;29;19923;-86
2021/01/18 06:15:09;;;;;;;;;;;;;;;10.00;59.94;102277.59;4926818;29;19958;-84
2021/01/18 06:17:49;;;;;;;;;;;;;;;10.02;60.08;102266.72;4926790;29;19954;-85
2021/01/18 06:20:21;;;;;;;;;;;;;;;10.07;59.77;102268.41;4936511;29;19968;-84
2021/01/18 06:22:53;;;;;;;;;;;;;;;10.08;60.09;102263.88;4936645;29;19927;-85
2021/01/18 06:25:19;;;;;;;;;;;;;;;10.29;59.33;102257.97;4936764;29;20017;-84
2021/01/18 06:27:44;;;;;;;;;;;;;;;10.99;56.95;102265.28;4943607;29;19970;-84
2021/01/18 06:30:19;;;;;;;;;;;;;;;10.14;60.24;102263.75;4935418;29;20000;-84
2021/01/18 06:32:48;;;;;;;;;;;;;;;10.04;59.63;102256.75;4938975;29;19919;-86
2021/01/18 06:35:19;;;;;;;;;;;;;;;9.92;60.89;102260.66;4940889;29;19922;-85
2021/01/18 06:37:45;;;;;;;;;;;;;;;10.33;59.75;102256.13;4960173;29;19921;-85
2021/01/18 06:40:11;;;;;;;;;;;;;;;10.59;58.61;102252.78;4943011;29;19925;-84
2021/01/18 06:42:41;;;;;;;;;;;;;;;10.42;59.13;102249.63;4941740;29;20318;-84
2021/01/18 06:45:18;;;;;;;;;;;;;;;9.68;61.23;102257.53;4959430;29;19942;-85
2021/01/18 06:47:43;;;;;;;;;;;;;;;9.68;61.90;102251.25;4941104;29;19925;-84
2021/01/18 06:50:09;;;;;;;;;;;;;;;9.94;60.04;102253.38;4941684;29;20008;-84
2021/01/18 06:52:45;;;;;;;;;;;;;;;10.73;58.21;102248.84;4941945;29;19968;-86
2021/01/18 06:55:23;;;;;;;;;;;;;;;10.41;58.35;102234.28;4932266;29;19933;-86
2021/01/18 06:58:07;;;;;;;;;;;;;;;9.83;61.33;102245.53;4959879;29;19973;-86
2021/01/18 07:00:38;;;;;;;;;;;;;;;10.23;60.01;102244.59;4942608;29;19918;-86
2021/01/18 07:03:06;;;;;;;;;;;;;;;11.05;57.16;102236.25;4949857;29;20340;-82
2021/01/18 07:05:52;;;;;;;;;;;;;;;10.63;58.19;102243.66;4941088;29;19918;-86
2021/01/18 07:08:19;;;;;;;;;;;;;;;10.13;60.10;102247.56;4941656;29;19946;-86
2021/01/18 07:10:46;;;;;;;;;;;;;;;10.04;60.18;102251.34;4927676;29;19919;-87
2021/01/18 07:13:13;;;;;;;;;;;;;;;10.20;60.24;102252.78;4939926;29;19943;-86
2021/01/18 07:15:40;;;;;;;;;;;;;;;10.17;59.23;102260.97;4922550;29;19923;-84
2021/01/18 07:18:07;;;;;;;;;;;;;;;10.77;57.92;102262.25;4925918;29;19918;-87
2021/01/18 07:20:36;;;;;;;;;;;;;;;10.89;58.07;102260.16;4924351;29;19923;-88
2021/01/18 07:23:08;;;;;;;;;;;;;;;10.64;58.37;102256.28;4923516;29;19923;-87
2021/01/18 07:25:43;;;;;;;;;;;;;;;10.89;57.51;102255.63;4940116;29;19951;-87
2021/01/18 07:28:17;;;;;;;;;;;;;;;10.41;58.80;102267.66;4922146;29;19966;-89
2021/01/18 07:30:42;;;;;;;;;;;;;;;10.37;59.31;102265.06;4932194;29;19922;-85
2021/01/18 07:33:08;;;;;;;;;;;;;;;10.33;59.22;102272.34;4958017;29;20337;-82
2021/01/18 07:35:35;;;;;;;;;;;;;;;10.22;59.10;102269.88;4958099;29;20013;-85
2021/01/18 07:38:12;;;;;;;;;;;;;;;10.02;60.72;102282.94;4942472;29;19925;-88
2021/01/18 07:40:38;;;;;;;;;;;;;;;9.88;61.32;102276.03;4943075;29;19950;-89
2021/01/18 07:43:03;;;;;;;;;;;;;;;10.07;60.75;102279.22;4958772;29;19977;-86
2021/01/18 07:45:28;;;;;;;;;;;;;;;9.88;61.40;102269.75;4941792;29;19977;-85
2021/01/18 07:47:53;;;;;;;;;;;;;;;9.37;62.85;102268.97;4940991;29;19918;-88
2021/01/18 07:50:31;;;;;;;;;;;;;;;9.62;62.04;102267.56;4958420;29;19977;-88
2021/01/18 07:53:04;;;;;;;;;;;;;;;10.65;58.97;102265.28;4942066;29;19930;-86
2021/01/18 07:55:29;;;;;;;;;;;;;;;10.35;59.39;102267.78;4936855;29;19919;-86
2021/01/18 07:58:10;;;;;;;;;;;;;;;10.67;59.32;102265.22;4940248;29;20430;-86
2021/01/18 08:00:36;;;;;;;;;;;;;;;10.94;57.53;102264.50;4940039;29;19919;-86
2021/01/18 08:03:07;;;;;;;;;;;;;;;11.00;57.46;102268.88;4940440;29;19918;-85
2021/01/18 08:05:33;;;;;;;;;;;;;;;10.40;59.34;102263.19;4941728;29;19973;-86
2021/01/18 08:08:13;;;;;;;;;;;;;;;10.48;59.07;102267.50;4940979;29;19918;-85
2021/01/18 08:10:56;;;;;;;;;;;;;;;10.17;59.88;102266.38;4941357;29;19945;-85
2021/01/18 08:13:41;;;;;;;;;;;;;;;10.55;58.95;102266.41;4940825;29;19926;-85
2021/01/18 08:16:18;;;;;;;;;;;;;;;10.45;59.00;102273.88;4942714;29;19918;-89
2021/01/18 08:19:48;;;;;;;;;;;;;;;10.65;58.96;102270.69;4940743;29;19922;-87
2021/01/18 08:21:58;;;;;;;;;;;;;;;10.28;60.28;102264.31;4947463;29;19926;-87
2021/01/18 08:24:27;;;;;;;;;;;;;;;10.36;60.33;102263.28;4938887;29;19929;-87
2021/01/18 08:26:54;;;;;;;;;;;;;;;9.68;61.81;102268.34;4959400;29;19918;-85
2021/01/18 08:29:38;;;;;;;;;;;;;;;9.90;61.74;102274.22;4940641;29;19958;-86
2021/01/18 08:32:22;;;;;;;;;;;;;;;9.83;62.06;102272.56;4940380;29;20016;-84
2021/01/18 08:34:57;;;;;;;;;;;;;;;10.34;61.16;102273.25;4960655;29;19918;-88
2021/01/18 08:37:23;;;;;;;;;;;;;;;10.09;61.04;102266.56;4943263;29;19973;-87
2021/01/18 08:40:08;;;;;;;;;;;;;;;10.39;60.52;102271.34;4938749;29;20316;-83
2021/01/18 08:42:35;;;;;;;;;;;;;;;10.64;59.35;102269.81;4952913;29;19927;-83
2021/01/18 08:45:06;;;;;;;;;;;;;;;10.01;61.43;102260.44;4956130;29;19919;-86
2021/01/18 08:47:40;;;;;;;;;;;;;;;10.87;58.96;102252.09;4939073;29;19918;-84
2021/01/18 08:50:19;;;;;;;;;;;;;;;10.82;58.88;102256.72;4931441;29;20372;-84
2021/01/18 08:52:45;;;;;;;;;;;;;;;10.98;58.45;102258.09;4933032;29;19923;-84
2021/01/18 08:55:28;;;;;;;;;;;;;;;10.15;61.40;102257.41;4934983;29;19925;-83
2021/01/18 08:57:55;;;;;;;;;;;;;;;10.26;60.17;102260.75;4938924;29;19973;-84
2021/01/18 09:00:20;;;;;;;;;;;;;;;10.16;60.59;102259.22;4956066;29;19918;-84
2021/01/18 09:02:47;;;;;;;;;;;;;;;10.68;59.14;102248.06;4933845;29;19949;-85
2021/01/18 09:05:19;;;;;;;;;;;;;;;10.25;60.56;102248.16;4945902;29;19929;-86
2021/01/18 09:07:48;;;;;;;;;;;;;;;9.98;61.48;102243.38;4931588;29;20380;-85
2021/01/18 09:10:14;;;;;;;;;;;;;;;10.71;59.48;102229.94;4919908;29;19927;-85
2021/01/18 09:12:40;;;;;;;;;;;;;;;10.33;60.29;102230.88;4936882;29;20431;-83
2021/01/18 09:15:07;;;;;;;;;;;;;;;10.28;60.30;102234.56;4919912;29;19919;-87
2021/01/18 09:17:32;;;;;;;;;;;;;;;10.60;59.51;102234.75;4938184;29;19922;-83
2021/01/18 09:20:02;;;;;;;;;;;;;;;10.32;60.73;102237.19;4922132;29;19984;-86
2021/01/18 09:22:27;;;;;;;;;;;;;;;10.48;59.71;102235.94;4936088;29;19982;-84
2021/01/18 09:24:52;;;;;;;;;;;;;;;9.78;61.36;102225.78;4955170;29;19922;-84
2021/01/18 09:27:19;;;;;;;;;;;;;;;10.81;59.34;102217.06;4929517;29;19923;-85
2021/01/18 09:30:07;;;;;;;;;;;;;;;11.73;56.42;102220.75;4930195;29;19926;-84
2021/01/18 09:32:33;;;;;;;;;;;;;;;10.25;59.94;102210.31;4937519;29;20013;-84
2021/01/18 09:35:07;;;;;;;;;;;;;;;9.70;62.22;102203.47;4937690;29;19919;-84
2021/01/18 09:37:32;;;;;;;;;;;;;;;10.06;61.46;102199.03;4955498;29;19918;-85
2021/01/18 09:40:01;;;;;;;;;;;;;;;9.61;61.88;102217.19;4940193;29;19918;-86
2021/01/18 09:42:28;;;;;;;;;;;;;;;10.65;59.76;102203.03;4943491;29;19964;-87
2021/01/18 09:44:53;;;;;;;;;;;;;;;10.78;59.28;102200.91;4942720;29;19922;-85
2021/01/18 09:47:19;;;;;;;;;;;;;;;9.66;62.38;102196.34;4942605;29;20356;-86
2021/01/18 09:49:45;;;;;;;;;;;;;;;10.04;61.44;102195.47;4959446;29;19970;-87
2021/01/18 09:52:10;;;;;;;;;;;;;;;10.36;60.81;102207.38;4942412;29;19929;-86
2021/01/18 09:54:39;;;;;;;;;;;;;;;10.44;60.97;102194.50;4959524;29;20390;-86
2021/01/18 09:57:09;;;;;;;;;;;;;;;10.27;61.29;102196.75;4942482;29;19922;-85
2021/01/18 09:59:37;;;;;;;;;;;;;;;9.62;62.27;102186.53;4942777;29;19982;-87
2021/01/18 10:02:03;;;;;;;;;;;;;;;9.74;62.14;102197.09;4952726;29;20039;-86
2021/01/18 10:04:29;;;;;;;;;;;;;;;10.05;61.47;102196.34;4933112;29;19919;-84
2021/01/18 10:07:11;;;;;;;;;;;;;;;10.30;61.46;102199.38;4956439;29;19925;-90
2021/01/18 10:09:37;;;;;;;;;;;;;;;10.74;59.55;102210.00;4933755;29;19950;-87
2021/01/18 10:12:04;;;;;;;;;;;;;;;10.14;61.75;102206.94;4924078;29;19919;-88
2021/01/18 10:14:30;;;;;;;;;;;;;;;10.76;59.65;102200.03;4924265;29;20017;-88
2021/01/18 10:17:03;;;;;;;;;;;;;;;10.56;60.16;102197.84;4941168;29;20010;-85
2021/01/18 10:19:29;;;;;;;;;;;;;;;10.87;59.54;102200.66;4924489;29;20593;-86
2021/01/18 10:21:54;;;;;;;;;;;;;;;10.08;61.85;102205.31;4923886;29;19931;-85
2021/01/18 10:24:24;;;;;;;;;;;;;;;11.20;58.27;102206.03;4940050;29;19926;-87
2021/01/18 10:26:50;;;;;;;;;;;;;;;11.35;58.01;102205.63;4923551;29;19923;-89
2021/01/18 10:29:21;;;;;;;;;;;;;;;10.72;59.51;102203.72;4923715;29;19986;-85
2021/01/18 10:31:52;;;;;;;;;;;;;;;11.71;55.54;102204.53;4923598;29;19943;-92
2021/01/18 10:34:21;;;;;;;;;;;;;;;10.57;59.58;102205.94;4925667;29;19918;-84
2021/01/18 10:36:47;;;;;;;;;;;;;;;10.52;59.96;102199.72;4930394;29;19927;-89
2021/01/18 10:39:27;;;;;;;;;;;;;;;10.79;59.43;102194.53;4923109;29;19918;-90
2021/01/18 10:42:04;;;;;;;;;;;;;;;10.56;59.74;102201.44;4941905;29;19972;-84
2021/01/18 10:44:30;;;;;;;;;;;;;;;10.25;60.16;102198.56;4943359;29;19918;-83
2021/01/18 10:46:55;;;;;;;;;;;;;;;11.27;58.00;102194.09;4939113;29;19926;-87
2021/01/18 10:49:31;;;;;;;;;;;;;;;10.92;59.02;102190.56;4942441;29;19918;-88
2021/01/18 10:51:57;;;;;;;;;;;;;;;10.86;59.40;102189.84;4925594;29;20400;-88
2021/01/18 10:54:29;;;;;;;;;;;;;;;11.17;58.56;102190.78;4945137;29;19926;-87
2021/01/18 10:56:57;;;;;;;;;;;;;;;10.12;60.86;102187.19;4958952;29;19922;-87
2021/01/18 10:59:23;;;;;;;;;;;;;;;11.09;58.20;102176.53;4936028;29;19970;-90
2021/01/18 11:02:00;;;;;;;;;;;;;;;12.38;54.96;102166.25;4942192;29;20273;-86
2021/01/18 11:04:26;;;;;;;;;;;;;;;11.05;58.50;102171.25;4941962;29;19926;-86
2021/01/18 11:06:53;;;;;;;;;;;;;;;10.67;58.78;102176.78;4922693;29;19939;-84
2021/01/18 11:09:33;;;;;;;;;;;;;;;10.86;59.42;102171.78;4923119;29;19926;-85
2021/01/18 11:11:59;;;;;;;;;;;;;;;11.26;57.85;102173.38;4950408;29;19985;-89
2021/01/18 11:14:26;;;;;;;;;;;;;;;10.96;58.63;102162.47;4941371;29;20017;-87
2021/01/18 11:16:58;;;;;;;;;;;;;;;11.32;57.88;102173.19;4930010;29;19923;-87
2021/01/18 11:19:23;;;;;;;;;;;;;;;12.50;54.54;102164.06;4933694;29;19946;-82
2021/01/18 11:21:51;;;;;;;;;;;;;;;12.19;55.37;102165.09;4958227;29;19926;-85
2021/01/18 11:24:17;;;;;;;;;;;;;;;12.00;56.42;102160.28;4938483;29;20009;-85
2021/01/18 11:26:42;;;;;;;;;;;;;;;12.03;55.61;102172.84;4922077;29;19962;-85
2021/01/18 11:29:10;;;;;;;;;;;;;;;12.09;56.00;102159.06;4921443;29;19923;-84
2021/01/18 11:31:35;;;;;;;;;;;;;;;12.43;54.16;102160.66;4937401;29;19918;-86
2021/01/18 11:34:01;;;;;;;;;;;;;;;11.87;55.61;102167.00;4939883;29;20273;-83
2021/01/18 11:36:26;;;;;;;;;;;;;;;13.35;52.42;102169.19;4939126;29;20334;-81
2021/01/18 11:38:52;;;;;;;;;;;;;;;12.13;55.75;102168.03;4939588;29;20323;-83
2021/01/18 11:41:17;;;;;;;;;;;;;;;11.52;57.59;102167.16;4931731;29;20441;-82
2021/01/18 11:43:42;;;;;;;;;;;;;;;11.70;57.52;102163.00;4926943;29;19973;-81
2021/01/18 11:46:07;;;;;;;;;;;;;;;11.92;56.24;102156.00;4939648;29;20034;-84
2021/01/18 11:48:33;;;;;;;;;;;;;;;11.97;56.18;102165.81;4939017;29;19929;-82
2021/01/18 11:50:58;;;;;;;;;;;;;;;12.12;55.29;102152.66;4939273;29;19982;-84
2021/01/18 11:53:23;;;;;;;;;;;;;;;13.46;52.43;102156.06;4939797;29;19922;-85
2021/01/18 11:55:49;;;;;;;;;;;;;;;12.43;54.55;102152.53;4934480;29;20508;-82
2021/01/18 11:58:14;;;;;;;;;;;;;;;12.35;54.04;102144.66;4928759;29;19919;-84
2021/01/18 12:00:41;;;;;;;;;;;;;;;12.33;54.27;102145.63;4933135;29;19919;-84
2021/01/18 12:03:06;;;;;;;;;;;;;;;12.66;54.28;102148.13;4938812;29;20018;-82
2021/01/18 12:05:31;;;;;;;;;;;;;;;12.58;53.84;102145.69;4925610;29;19962;-84
2021/01/18 12:07:57;;;;;;;;;;;;;;;11.74;55.09;102138.50;4926350;29;19974;-83
2021/01/18 12:10:23;;;;;;;;;;;;;;;12.17;54.87;102139.84;4939348;29;19919;-84
2021/01/18 12:12:49;;;;;;;;;;;;;;;12.11;54.50;102130.09;4938958;29;19957;-84
2021/01/18 12:15:15;;;;;;;;;;;;;;;12.49;53.62;102127.00;4939190;29;19970;-84
2021/01/18 12:17:41;;;;;;;;;;;;;;;12.96;51.94;102127.09;4930450;29;19919;-82
2021/01/18 12:20:07;;;;;;;;;;;;;;;11.99;54.25;102125.09;4939608;29;19977;-83
2021/01/18 12:22:32;;;;;;;;;;;;;;;12.22;53.96;102117.03;4948523;29;19923;-85
2021/01/18 12:24:58;;;;;;;;;;;;;;;12.28;54.02;102117.78;4960272;29;20567;-82
2021/01/18 12:27:23;;;;;;;;;;;;;;;11.99;55.04;102112.41;4931291;29;19940;-83
2021/01/18 12:29:48;;;;;;;;;;;;;;;11.67;55.36;102111.59;4961780;29;19926;-82
2021/01/18 12:32:14;;;;;;;;;;;;;;;12.22;54.32;102108.03;4943407;29;19927;-83
2021/01/18 12:34:39;;;;;;;;;;;;;;;12.27;54.26;102103.31;4943488;29;19942;-83
2021/01/18 12:37:04;;;;;;;;;;;;;;;12.25;54.44;102107.91;4953253;29;20396;-83
2021/01/18 12:39:29;;;;;;;;;;;;;;;12.25;54.42;102094.34;4930231;29;19922;-84
2021/01/18 12:41:55;;;;;;;;;;;;;;;11.67;56.64;102099.84;4950028;29;19918;-83
2021/01/18 12:44:20;;;;;;;;;;;;;;;11.56;57.01;102108.31;4939437;29;20273;-87